createdAt,value
2022-10-12T00:02:16.582Z,3.53
2022-10-12T00:04:45.666Z,3.47
2022-10-12T00:07:14.640Z,3.43
2022-10-12T00:09:43.736Z,3.40
2022-10-12T00:12:13.066Z,3.53
2022-10-12T00:14:42.153Z,3.23
2022-10-12T00:17:13.301Z,3.43
2022-10-12T00:19:46.492Z,3.70
2022-10-12T00:22:15.567Z,3.10
2022-10-12T00:24:45.061Z,3.37
2022-10-12T00:27:14.118Z,3.90
2022-10-12T00:29:43.428Z,3.77
2022-10-12T00:32:12.435Z,3.70
2022-10-12T00:34:42.979Z,3.63
2022-10-12T00:37:12.018Z,3.00
2022-10-12T00:39:41.080Z,4.00
2022-10-12T00:42:12.667Z,3.17
2022-10-12T00:44:45.000Z,3.30
2022-10-12T00:47:24.706Z,3.40
2022-10-12T00:49:59.996Z,3.40
2022-10-12T00:52:36.400Z,3.47
2022-10-12T00:55:07.341Z,3.93
2022-10-12T00:57:36.747Z,3.63
2022-10-12T01:00:09.480Z,3.57
2022-10-12T01:02:41.318Z,4.40
2022-10-12T01:05:14.193Z,3.80
2022-10-12T01:07:43.586Z,3.33
2022-10-12T01:10:13.156Z,3.90
2022-10-12T01:12:44.442Z,3.87
2022-10-12T01:15:14.965Z,3.43
2022-10-12T01:17:55.647Z,3.97
2022-10-12T01:21:05.339Z,3.87
2022-10-12T01:24:07.186Z,4.00
2022-10-12T01:27:03.634Z,3.73
2022-10-12T01:29:57.495Z,3.97
2022-10-12T01:32:36.998Z,3.93
2022-10-12T01:35:17.219Z,4.07
2022-10-12T01:37:57.858Z,3.83
2022-10-12T01:40:39.538Z,3.70
2022-10-12T01:43:11.725Z,3.90
2022-10-12T01:45:45.398Z,3.90
2022-10-12T01:48:16.239Z,3.80
2022-10-12T01:50:55.618Z,3.83
2022-10-12T01:53:48.358Z,4.50
2022-10-12T01:56:28.264Z,3.80
2022-10-12T01:59:04.627Z,4.03
2022-10-12T02:01:43.008Z,3.93
2022-10-12T02:04:29.381Z,4.30
2022-10-12T02:07:08.298Z,3.33
2022-10-12T02:09:43.878Z,3.70
2022-10-12T02:12:15.245Z,4.00
2022-10-12T02:14:50.879Z,3.57
2022-10-12T02:17:23.798Z,3.97
2022-10-12T02:19:57.360Z,4.30
2022-10-12T02:22:28.602Z,4.00
2022-10-12T02:25:00.225Z,4.03
2022-10-12T02:27:29.578Z,4.20
2022-10-12T02:29:58.985Z,3.70
2022-10-12T02:32:32.939Z,3.97
2022-10-12T02:35:07.314Z,4.13
2022-10-12T02:37:40.884Z,4.33
2022-10-12T02:40:15.399Z,3.73
2022-10-12T02:43:09.748Z,3.60
2022-10-12T02:45:41.730Z,4.03
2022-10-12T02:48:15.618Z,3.27
2022-10-12T02:50:45.158Z,3.57
2022-10-12T02:53:14.573Z,3.73
2022-10-12T02:55:51.078Z,4.00
2022-10-12T02:58:20.328Z,3.53
2022-10-12T03:00:49.342Z,3.73
2022-10-12T03:03:20.155Z,3.50
2022-10-12T03:05:49.254Z,4.30
2022-10-12T03:08:18.298Z,4.23
2022-10-12T03:10:47.249Z,3.63
2022-10-12T03:13:16.260Z,4.03
2022-10-12T03:15:45.217Z,3.63
2022-10-12T03:18:14.254Z,3.33
2022-10-12T03:20:49.114Z,3.40
2022-10-12T03:23:18.183Z,3.70
2022-10-12T03:25:47.094Z,3.73
2022-10-12T03:28:16.188Z,3.17
2022-10-12T03:30:45.705Z,3.60
2022-10-12T03:33:15.054Z,3.60
2022-10-12T03:35:47.378Z,3.80
2022-10-12T03:38:17.506Z,4.43
2022-10-12T03:40:47.340Z,4.00
2022-10-12T03:43:16.378Z,3.87
2022-10-12T03:45:45.366Z,4.10
2022-10-12T03:48:14.323Z,4.40
2022-10-12T03:50:43.278Z,3.80
2022-10-12T03:53:13.663Z,3.53
2022-10-12T03:55:42.545Z,4.27
2022-10-12T03:58:11.636Z,4.20
2022-10-12T04:00:40.587Z,4.70
2022-10-12T04:03:09.558Z,4.70
2022-10-12T04:05:39.406Z,4.10
2022-10-12T04:08:08.574Z,3.77
2022-10-12T04:10:38.943Z,4.30
2022-10-12T04:13:07.902Z,4.73
2022-10-12T04:15:36.897Z,4.10
2022-10-12T04:18:06.319Z,4.43
2022-10-12T04:20:35.242Z,4.30
2022-10-12T04:23:04.231Z,4.63
2022-10-12T04:25:33.166Z,4.53
2022-10-12T04:28:03.586Z,5.13
2022-10-12T04:30:33.460Z,4.50
2022-10-12T04:33:02.566Z,4.50
2022-10-12T04:35:31.506Z,4.40
2022-10-12T04:38:00.525Z,4.33
2022-10-12T04:40:29.399Z,5.10
2022-10-12T04:42:58.352Z,4.80
2022-10-12T04:45:28.766Z,4.57
2022-10-12T04:47:57.742Z,5.53
2022-10-12T04:50:30.023Z,4.30
2022-10-12T04:52:59.249Z,4.93
2022-10-12T04:55:28.683Z,4.33
2022-10-12T04:57:57.718Z,5.47
2022-10-12T05:00:28.195Z,4.40
2022-10-12T05:02:57.164Z,5.23
2022-10-12T05:05:26.207Z,5.07
2022-10-12T05:07:55.226Z,4.90
2022-10-12T05:10:24.166Z,5.70
2022-10-12T05:12:53.126Z,5.63
2022-10-12T05:15:22.279Z,5.23
2022-10-12T05:17:52.775Z,5.30
2022-10-12T05:20:21.886Z,4.97
2022-10-12T05:22:50.964Z,5.33
2022-10-12T05:25:20.710Z,5.00
2022-10-12T05:27:49.689Z,5.60
2022-10-12T05:30:19.158Z,5.23
2022-10-12T05:32:48.147Z,4.87
2022-10-12T05:35:18.746Z,5.03
2022-10-12T05:37:47.968Z,5.27
2022-10-12T05:40:17.018Z,5.20
2022-10-12T05:42:46.238Z,5.33
2022-10-12T05:45:15.178Z,5.43
2022-10-12T05:47:44.219Z,5.87
2022-10-12T05:50:13.104Z,5.27
2022-10-12T05:52:43.758Z,5.50
2022-10-12T05:55:12.758Z,5.23
2022-10-12T05:57:41.758Z,5.10
2022-10-12T06:00:11.605Z,6.07
2022-10-12T06:02:40.817Z,5.33
2022-10-12T06:05:10.118Z,5.20
2022-10-12T06:07:39.248Z,5.13
2022-10-12T06:10:10.660Z,6.20
2022-10-12T06:12:40.204Z,5.87
2022-10-12T06:15:11.013Z,6.23
2022-10-12T06:17:40.079Z,5.77
2022-10-12T06:20:09.962Z,5.90
2022-10-12T06:22:39.155Z,5.70
2022-10-12T06:25:10.580Z,5.80
2022-10-12T06:27:39.647Z,5.50
2022-10-12T06:30:09.386Z,5.63
2022-10-12T06:32:38.600Z,5.37
2022-10-12T06:35:09.055Z,5.37
2022-10-12T06:37:49.700Z,5.80
2022-10-12T06:40:21.027Z,5.30
2022-10-12T06:42:53.812Z,5.43
2022-10-12T06:45:26.578Z,5.70
2022-10-12T06:47:55.818Z,4.90
2022-10-12T06:50:24.738Z,5.57
2022-10-12T06:52:53.619Z,5.40
2022-10-12T06:55:24.166Z,4.60
2022-10-12T06:57:53.169Z,4.97
2022-10-12T07:00:22.259Z,4.90
2022-10-12T07:02:51.618Z,5.73
2022-10-12T07:05:21.807Z,4.77
2022-10-12T07:07:50.759Z,5.23
2022-10-12T07:10:19.885Z,5.20
2022-10-12T07:12:50.432Z,5.33
2022-10-12T07:15:19.468Z,4.63
2022-10-12T07:17:48.354Z,5.10
2022-10-12T07:20:17.671Z,4.70
2022-10-12T07:22:46.551Z,4.57
2022-10-12T07:25:15.547Z,4.53
2022-10-12T07:27:44.460Z,4.10
2022-10-12T07:30:15.591Z,4.27
2022-10-12T07:32:46.418Z,4.27
2022-10-12T07:35:15.438Z,4.90
2022-10-12T07:37:44.379Z,4.17
2022-10-12T07:40:13.447Z,4.33
2022-10-12T07:43:05.448Z,4.77
2022-10-12T07:45:34.220Z,4.57
2022-10-12T07:48:03.159Z,4.30
2022-10-12T07:50:32.347Z,3.83
2022-10-12T07:53:01.315Z,4.27
2022-10-12T07:55:32.280Z,4.33
2022-10-12T07:58:01.217Z,4.27
2022-10-12T08:00:32.999Z,4.10
2022-10-12T08:03:01.946Z,5.30
2022-10-12T08:05:30.929Z,4.33
2022-10-12T08:08:00.555Z,3.83
2022-10-12T08:10:30.318Z,4.43
2022-10-12T08:12:59.307Z,4.00
2022-10-12T08:15:28.199Z,3.37
2022-10-12T08:17:58.500Z,3.83
2022-10-12T08:20:27.586Z,3.67
2022-10-12T08:22:56.598Z,3.93
2022-10-12T08:25:25.740Z,3.30
2022-10-12T08:27:54.629Z,3.40
2022-10-12T08:30:27.240Z,3.23
2022-10-12T08:32:57.626Z,3.40
2022-10-12T08:35:26.706Z,3.40
2022-10-12T08:37:56.380Z,3.67
2022-10-12T08:40:32.185Z,4.00
2022-10-12T08:43:10.808Z,3.60
2022-10-12T08:45:45.466Z,3.27
2022-10-12T08:48:19.766Z,3.80
2022-10-12T08:50:53.484Z,5.00
2022-10-12T08:53:27.710Z,4.00
2022-10-12T08:55:59.506Z,4.00
2022-10-12T08:58:33.599Z,3.77
2022-10-12T09:01:16.457Z,3.47
2022-10-12T09:03:58.919Z,11.73
2022-10-12T09:06:32.187Z,7.80
2022-10-12T09:09:09.018Z,4.20
2022-10-12T09:11:52.938Z,6.13
2022-10-12T09:14:25.382Z,4.00
2022-10-12T09:16:56.505Z,5.73
2022-10-12T09:19:31.334Z,4.33
2022-10-12T09:22:00.451Z,4.60
2022-10-12T09:24:32.604Z,3.20
2022-10-12T09:27:09.841Z,12.80
2022-10-12T09:29:38.831Z,3.70
2022-10-12T09:32:35.879Z,3.53
2022-10-12T09:35:08.389Z,3.33
2022-10-12T09:37:37.859Z,3.73
2022-10-12T09:40:08.107Z,3.70
2022-10-12T09:42:37.219Z,3.33
2022-10-12T09:45:16.336Z,3.60
2022-10-12T09:48:12.779Z,4.03
2022-10-12T09:50:46.028Z,3.73
2022-10-12T09:53:31.958Z,3.60
2022-10-12T09:56:08.916Z,3.37
2022-10-12T09:58:51.671Z,3.37
2022-10-12T10:01:26.570Z,3.60
2022-10-12T10:04:15.278Z,3.33
2022-10-12T10:06:47.605Z,4.10
2022-10-12T10:09:31.498Z,3.47
2022-10-12T10:12:22.099Z,2.97
2022-10-12T10:14:52.481Z,3.60
2022-10-12T10:17:27.603Z,3.47
2022-10-12T10:20:01.100Z,3.50
2022-10-12T10:22:32.157Z,3.80
2022-10-12T10:25:02.406Z,3.23
2022-10-12T10:27:34.938Z,3.60
2022-10-12T10:30:33.580Z,3.30
2022-10-12T10:33:17.371Z,3.70
2022-10-12T10:36:01.197Z,3.87
2022-10-12T10:38:34.134Z,3.73
2022-10-12T10:41:07.914Z,3.50
2022-10-12T10:43:37.398Z,4.00
2022-10-12T10:46:07.169Z,3.80
2022-10-12T10:48:53.231Z,3.60
2022-10-12T10:51:22.575Z,4.10
2022-10-12T10:53:53.743Z,3.50
2022-10-12T10:56:26.842Z,4.30
2022-10-12T10:58:58.819Z,4.07
2022-10-12T11:01:34.371Z,3.97
2022-10-12T11:04:08.419Z,4.10
2022-10-12T11:06:42.820Z,3.73
2022-10-12T11:09:19.911Z,4.33
2022-10-12T11:11:57.839Z,3.67
2022-10-12T11:14:32.821Z,3.87
2022-10-12T11:17:07.118Z,3.60
2022-10-12T11:19:43.698Z,3.13
2022-10-12T11:22:17.060Z,3.60
2022-10-12T11:24:51.458Z,3.60
2022-10-12T11:27:26.255Z,3.43
2022-10-12T11:30:09.344Z,3.43
2022-10-12T11:32:42.219Z,3.33
2022-10-12T11:35:18.268Z,3.30
2022-10-12T11:37:52.877Z,3.30
2022-10-12T11:43:21.520Z,3.50
2022-10-12T11:45:54.155Z,3.43
2022-10-12T11:48:29.114Z,3.63
2022-10-12T11:51:03.881Z,3.17
2022-10-12T11:53:41.159Z,3.43
2022-10-12T11:56:18.358Z,3.40
2022-10-12T11:59:00.557Z,3.57
2022-10-12T12:01:50.847Z,3.70
2022-10-12T12:04:48.076Z,3.27
2022-10-12T12:07:46.826Z,3.50
2022-10-12T14:15:09.966Z,3.40
2022-10-12T14:20:28.038Z,3.97
2022-10-12T14:22:58.851Z,3.50
2022-10-12T14:25:29.875Z,4.00
2022-10-12T14:28:00.955Z,3.67
2022-10-12T14:30:33.535Z,3.80
2022-10-12T14:33:13.281Z,3.33
2022-10-12T14:35:44.348Z,3.30
2022-10-12T14:38:41.108Z,3.40
2022-10-12T14:41:46.259Z,3.33
2022-10-12T14:44:17.936Z,3.53
2022-10-12T14:46:54.254Z,6.63
2022-10-12T14:49:25.579Z,6.40
2022-10-12T14:51:56.199Z,5.63
2022-10-12T14:54:25.318Z,9.53
2022-10-12T14:56:54.386Z,8.97
2022-10-12T14:59:23.228Z,7.60
2022-10-12T15:01:53.541Z,6.00
2022-10-12T15:04:23.039Z,6.50
2022-10-12T15:06:51.914Z,5.93
2022-10-12T15:09:21.092Z,6.70
2022-10-12T15:11:49.862Z,6.13
2022-10-12T15:14:18.805Z,5.23
2022-10-12T15:16:47.649Z,5.47
2022-10-12T15:19:18.087Z,5.40
2022-10-12T15:21:48.039Z,5.60
2022-10-12T15:24:18.230Z,5.30
2022-10-12T15:26:47.423Z,5.07
2022-10-12T15:29:16.326Z,4.90
2022-10-12T15:31:50.387Z,5.10
2022-10-12T15:34:21.680Z,8.80
2022-10-12T15:36:51.091Z,14.20
2022-10-12T15:39:20.269Z,13.93
2022-10-12T15:41:49.166Z,14.97
2022-10-12T15:44:18.623Z,9.07
2022-10-12T15:46:52.651Z,9.90
2022-10-12T15:49:24.771Z,11.23
2022-10-12T15:51:55.537Z,11.93
2022-10-12T15:54:24.799Z,12.27
2022-10-12T15:56:53.993Z,14.20
2022-10-12T15:59:23.264Z,15.63
2022-10-12T16:01:52.194Z,15.00
2022-10-12T16:04:22.887Z,15.73
2022-10-12T16:06:53.001Z,13.43
2022-10-12T16:09:21.914Z,12.07
2022-10-12T16:11:51.293Z,11.20
2022-10-12T16:14:21.432Z,10.63
2022-10-12T16:16:50.643Z,9.03
2022-10-12T16:19:19.556Z,8.07
2022-10-12T16:21:49.973Z,8.30
2022-10-12T16:24:18.973Z,7.80
2022-10-12T16:26:50.197Z,6.93
2022-10-12T16:29:19.891Z,6.10
2022-10-12T16:31:48.842Z,5.70
2022-10-12T16:34:17.704Z,5.80
2022-10-12T16:36:46.684Z,5.50
2022-10-12T16:39:16.915Z,5.67
2022-10-12T16:41:45.809Z,5.53
2022-10-12T16:44:14.664Z,5.90
2022-10-12T16:46:43.555Z,5.53
2022-10-12T16:49:12.354Z,5.90
2022-10-12T16:51:43.767Z,5.57
2022-10-12T16:54:12.873Z,4.50
2022-10-12T16:56:43.249Z,4.83
2022-10-12T16:59:12.048Z,5.27
2022-10-12T17:01:41.833Z,4.83
2022-10-12T17:04:12.503Z,4.40
2022-10-12T17:06:41.532Z,4.30
2022-10-12T17:09:10.683Z,4.20
2022-10-12T17:11:41.517Z,3.80
2022-10-12T17:14:15.235Z,3.90
2022-10-12T17:16:57.340Z,3.97
2022-10-12T17:19:28.979Z,3.80
2022-10-12T17:21:59.832Z,3.67
2022-10-12T17:24:30.373Z,3.40
2022-10-12T17:27:00.066Z,3.10
2022-10-12T17:29:32.527Z,3.10
2022-10-12T17:32:02.117Z,3.37
2022-10-12T17:34:33.293Z,3.20
2022-10-12T17:37:03.334Z,3.20
2022-10-12T17:39:39.189Z,3.17
2022-10-12T17:42:09.753Z,3.20
2022-10-12T17:44:40.527Z,3.47
2022-10-12T17:47:09.845Z,3.37
2022-10-12T17:49:38.754Z,3.40
2022-10-12T17:52:07.869Z,3.03
2022-10-12T17:54:36.985Z,4.10
2022-10-12T17:57:06.090Z,2.83
2022-10-12T17:59:35.031Z,2.57
2022-10-12T18:02:09.361Z,2.90
2022-10-12T18:04:38.529Z,2.80
2022-10-12T18:07:07.522Z,3.03
2022-10-12T18:09:39.107Z,3.20
2022-10-12T18:12:08.367Z,3.07
2022-10-12T18:14:37.392Z,2.77
2022-10-12T18:17:08.173Z,4.00
2022-10-12T18:19:37.721Z,4.00
2022-10-12T18:22:06.623Z,3.77
2022-10-12T18:24:35.495Z,4.33
2022-10-12T18:27:04.613Z,3.97
2022-10-12T18:29:33.934Z,4.33
2022-10-12T18:32:03.385Z,6.20
2022-10-12T18:34:36.593Z,5.33
2022-10-12T18:37:06.175Z,5.00
2022-10-12T18:39:35.993Z,7.13
2022-10-12T18:42:05.563Z,4.47
2022-10-12T18:44:34.934Z,4.40
2022-10-12T18:47:04.254Z,4.17
2022-10-12T18:49:35.037Z,4.17
2022-10-12T18:52:04.564Z,4.07
2022-10-12T18:54:33.508Z,4.53
2022-10-12T18:57:03.176Z,4.20
2022-10-12T18:59:37.055Z,3.93
2022-10-12T19:02:06.406Z,4.50
2022-10-12T19:04:36.955Z,4.20
2022-10-12T19:07:06.322Z,3.70
2022-10-12T19:09:35.254Z,3.80
2022-10-12T19:12:04.207Z,3.90
2022-10-12T19:14:33.346Z,4.00
2022-10-12T19:17:02.652Z,3.97
2022-10-12T19:19:32.406Z,4.17
2022-10-12T19:22:03.082Z,4.60
2022-10-12T19:24:32.385Z,4.00
2022-10-12T19:27:02.079Z,4.20
2022-10-12T19:29:31.683Z,4.47
2022-10-12T19:32:01.454Z,4.17
2022-10-12T19:34:31.365Z,4.83
2022-10-12T19:37:02.652Z,4.27
2022-10-12T19:39:32.574Z,4.10
2022-10-12T19:42:02.201Z,4.30
2022-10-12T19:44:31.669Z,3.63
2022-10-12T19:47:01.503Z,3.73
2022-10-12T19:49:35.743Z,3.93
2022-10-12T19:52:07.814Z,4.50
2022-10-12T19:54:37.092Z,7.73
2022-10-12T19:57:06.523Z,4.67
2022-10-12T19:59:35.976Z,9.70
2022-10-12T20:02:05.463Z,10.23
2022-10-12T20:04:34.411Z,5.20
2022-10-12T20:07:03.608Z,4.40
2022-10-12T20:09:34.262Z,4.90
2022-10-12T20:12:03.863Z,4.60
2022-10-12T20:14:33.064Z,4.10
2022-10-12T20:17:01.897Z,4.20
2022-10-12T20:19:30.793Z,4.30
2022-10-12T20:21:59.623Z,4.57
2022-10-12T20:24:33.710Z,4.53
2022-10-12T20:27:03.987Z,3.90
2022-10-12T20:29:33.133Z,6.60
2022-10-12T20:32:02.055Z,4.03
2022-10-12T20:34:30.984Z,4.53
2022-10-12T20:36:59.826Z,4.13
2022-10-12T20:39:28.722Z,3.93
2022-10-12T20:41:57.659Z,4.07
2022-10-12T20:44:28.203Z,4.17
2022-10-12T20:46:57.151Z,4.27
2022-10-12T20:49:26.312Z,4.10
2022-10-12T20:51:55.141Z,4.13
2022-10-12T20:54:24.027Z,3.93
2022-10-12T20:56:52.864Z,4.47
2022-10-12T20:59:21.831Z,5.37
2022-10-12T21:01:52.146Z,4.70
2022-10-12T21:04:21.073Z,4.23
2022-10-12T21:06:49.869Z,5.60
2022-10-12T21:09:18.882Z,6.10
2022-10-12T21:11:47.783Z,6.47
2022-10-12T21:14:16.710Z,5.40
2022-10-12T21:16:45.602Z,5.50
2022-10-12T21:19:18.263Z,6.30
2022-10-12T21:21:47.910Z,5.93
2022-10-12T21:24:17.217Z,4.27
2022-10-12T21:26:46.503Z,3.97
2022-10-12T21:29:15.764Z,5.30
2022-10-12T21:31:44.588Z,4.60
2022-10-12T21:34:13.847Z,5.53
2022-10-12T21:36:44.163Z,6.00
2022-10-12T21:39:15.022Z,5.80
2022-10-12T21:41:44.251Z,6.30
2022-10-12T21:44:13.444Z,6.03
2022-10-12T21:46:42.530Z,5.80
2022-10-12T21:49:12.676Z,6.20
2022-10-12T21:51:41.641Z,5.27
2022-10-12T21:54:12.340Z,6.13
2022-10-12T21:56:41.162Z,5.40
2022-10-12T21:59:11.350Z,5.10
2022-10-12T22:01:41.942Z,5.70
2022-10-12T22:04:14.799Z,4.93
2022-10-12T22:06:44.733Z,4.33
2022-10-12T22:09:17.083Z,4.57
2022-10-12T22:11:46.391Z,5.37
2022-10-12T22:14:17.723Z,4.80
2022-10-12T22:16:47.549Z,4.53
2022-10-12T22:19:19.221Z,4.80
2022-10-12T22:21:48.742Z,5.30
2022-10-12T22:24:19.455Z,5.30
2022-10-12T22:26:48.413Z,5.50
2022-10-12T22:29:17.383Z,5.97
2022-10-12T22:31:46.679Z,6.17
2022-10-12T22:34:15.675Z,5.60
2022-10-12T22:36:44.879Z,5.73
2022-10-12T22:39:14.035Z,5.77
2022-10-12T22:41:44.541Z,5.03
2022-10-12T22:44:13.515Z,6.27
2022-10-12T22:46:42.444Z,6.73
2022-10-12T22:49:11.414Z,6.40
2022-10-12T22:51:40.765Z,6.93
2022-10-12T22:54:11.415Z,7.47
2022-10-12T22:56:40.603Z,6.80
2022-10-12T22:59:15.126Z,6.97
2022-10-12T23:01:44.111Z,6.97
2022-10-12T23:04:13.016Z,7.33
2022-10-12T23:06:41.880Z,6.40
2022-10-12T23:09:10.840Z,6.73
2022-10-12T23:11:39.596Z,7.17
2022-10-12T23:14:11.487Z,6.17
2022-10-12T23:16:40.255Z,7.13
2022-10-12T23:19:09.236Z,6.63
2022-10-12T23:21:38.171Z,4.17
2022-10-12T23:24:07.761Z,3.63
2022-10-12T23:26:37.300Z,4.60
2022-10-12T23:29:06.281Z,5.03
2022-10-12T23:31:37.223Z,4.67
2022-10-12T23:34:08.360Z,5.00
2022-10-12T23:36:37.269Z,4.13
2022-10-12T23:39:07.433Z,5.73
2022-10-12T23:41:36.440Z,5.87
2022-10-12T23:44:05.880Z,5.87
2022-10-12T23:46:36.221Z,6.07
2022-10-12T23:49:05.084Z,4.87
2022-10-12T23:51:34.101Z,5.80
2022-10-12T23:54:03.073Z,5.87
2022-10-12T23:56:31.941Z,5.77
2022-10-12T23:59:00.942Z,6.67
